Time;durP1;ratioP1;P1;durP2;ratioP2;P2;SDS_P1;SDS_P2;PMS_P1;PMS_P2;Temp;Humidity;BMP_temperature;BMP_pressure;BME280_temperature;BME280_humidity;BME280_pressure;Samples;Min_cycle;Max_cycle;Signal;HPM_P1;HPM_P2
2021/04/07 00:00:17;;;;;;;11.30;6.35;;;;;;;-2.40;100.00;95482.25;1019893;29;20027;-61
2021/04/07 00:00:47;;;;;;;12.93;6.10;;;;;;;-2.40;100.00;95484.84;1023849;29;20026;-62
2021/04/07 00:01:18;;;;;;;10.68;5.32;;;;;;;-2.42;100.00;95476.31;1035792;28;20300;-60
2021/04/07 00:01:49;;;;;;;13.77;6.85;;;;;;;-2.42;100.00;95476.31;1027840;28;20090;-61
2021/04/07 00:02:20;;;;;;;10.45;5.70;;;;;;;-2.41;100.00;95471.00;1031432;28;20260;-61
2021/04/07 00:02:51;;;;;;;9.50;5.80;;;;;;;-2.37;100.00;95476.81;1027285;28;20711;-61
2021/04/07 00:03:22;;;;;;;9.32;5.63;;;;;;;-2.37;100.00;95482.03;1027495;28;20023;-61
2021/04/07 00:03:52;;;;;;;10.32;5.63;;;;;;;-2.38;100.00;95475.19;1023717;29;20102;-61
2021/04/07 00:04:23;;;;;;;15.07;5.85;;;;;;;-2.37;100.00;95475.09;1020021;29;20473;-60
2021/04/07 00:05:06;;;;;;;8.95;5.72;;;;;;;-2.39;100.00;95470.91;1023952;29;20464;-61
2021/04/07 00:05:39;;;;;;;9.25;5.40;;;;;;;-2.42;100.00;95465.91;1023848;28;20058;-60
2021/04/07 00:06:10;;;;;;;9.02;4.65;;;;;;;-2.35;100.00;95475.78;1027783;28;20650;-61
2021/04/07 00:06:41;;;;;;;11.13;5.40;;;;;;;-2.46;100.00;95465.31;1031902;28;20261;-60
2021/04/07 00:07:11;;;;;;;9.18;5.22;;;;;;;-2.44;100.00;95466.03;1027826;28;20041;-61
2021/04/07 00:07:43;;;;;;;8.15;5.22;;;;;;;-2.43;100.00;95470.31;1027729;28;20408;-59
2021/04/07 00:08:20;;;;;;;10.48;5.13;;;;;;;-2.40;100.00;95461.44;1031806;28;20030;-61
2021/04/07 00:08:51;;;;;;;7.63;4.63;;;;;;;-2.36;100.00;95462.91;1031910;28;20254;-61
2021/04/07 00:09:24;;;;;;;11.25;5.47;;;;;;;-2.38;100.00;95464.78;1027754;28;20298;-60
2021/04/07 00:09:55;;;;;;;8.18;4.90;;;;;;;-2.35;100.00;95464.53;1027730;28;20045;-61
2021/04/07 00:10:30;;;;;;;7.90;5.35;;;;;;;-2.38;100.00;95462.19;1027778;28;20515;-61
2021/04/07 00:11:01;;;;;;;6.93;4.47;;;;;;;-2.39;100.00;95457.91;1031871;28;20026;-61
2021/04/07 00:11:32;;;;;;;6.85;4.75;;;;;;;-2.40;100.00;95462.28;1027880;28;20748;-61
2021/04/07 00:12:03;;;;;;;10.27;5.25;;;;;;;-2.36;100.00;95462.91;1031621;28;20487;-61
2021/04/07 00:12:34;;;;;;;9.38;5.80;;;;;;;-2.40;100.00;95462.28;1031923;28;20492;-61
2021/04/07 00:13:06;;;;;;;10.18;5.82;;;;;;;-2.37;100.00;95458.63;1023830;29;20250;-61
2021/04/07 00:13:37;;;;;;;8.63;5.75;;;;;;;-2.31;100.00;95458.19;1031510;28;20547;-60
2021/04/07 00:14:09;;;;;;;8.73;5.00;;;;;;;-2.30;100.00;95457.25;1035906;28;20020;-61
2021/04/07 00:14:39;;;;;;;9.48;5.25;;;;;;;-2.26;100.00;95458.72;1031828;28;20029;-58
2021/04/07 00:15:13;;;;;;;11.85;5.60;;;;;;;-2.26;100.00;95453.50;1019778;29;20670;-61
2021/04/07 00:15:44;;;;;;;9.55;5.70;;;;;;;-2.26;100.00;95463.91;1020615;29;20023;-60
2021/04/07 00:16:14;;;;;;;9.52;5.25;;;;;;;-2.35;100.00;95459.34;1031694;28;20022;-61
2021/04/07 00:16:47;;;;;;;10.65;5.30;;;;;;;-2.40;100.00;95451.88;1023941;29;20457;-61
2021/04/07 00:17:18;;;;;;;8.93;5.10;;;;;;;-2.44;100.00;95440.03;1027841;28;20023;-61
2021/04/07 00:17:49;;;;;;;11.73;4.90;;;;;;;-2.31;100.00;95466.00;1027676;28;20270;-62
2021/04/07 00:18:20;;;;;;;7.80;4.85;;;;;;;-2.28;100.00;95453.63;1019740;29;20027;-61
2021/04/07 00:18:51;;;;;;;7.30;4.70;;;;;;;-2.31;100.00;95466.81;1031798;28;20022;-61
2021/04/07 00:19:22;;;;;;;9.15;4.85;;;;;;;-2.36;100.00;95462.91;1027712;28;20026;-60
2021/04/07 00:19:52;;;;;;;10.73;5.28;;;;;;;-2.32;100.00;95467.75;1027743;28;20019;-60
2021/04/07 00:20:25;;;;;;;8.00;4.65;;;;;;;-2.33;100.00;95460.91;1019754;29;20414;-62
2021/04/07 00:20:56;;;;;;;8.77;4.45;;;;;;;-2.38;100.00;95463.00;1023895;29;20019;-62
2021/04/07 00:21:26;;;;;;;9.43;4.50;;;;;;;-2.32;100.00;95461.72;1031758;28;20312;-61
2021/04/07 00:21:57;;;;;;;13.00;5.93;;;;;;;-2.27;100.00;95463.06;1027736;28;20074;-60
2021/04/07 00:22:28;;;;;;;7.90;4.32;;;;;;;-2.30;100.00;95467.66;1027701;28;20114;-60
2021/04/07 00:22:59;;;;;;;9.52;4.75;;;;;;;-2.32;100.00;95465.16;1019841;28;20016;-61
2021/04/07 00:23:30;;;;;;;9.32;5.32;;;;;;;-2.28;100.00;95461.41;1023711;28;20501;-60
2021/04/07 00:24:01;;;;;;;7.88;4.53;;;;;;;-2.26;100.00;95458.72;1019822;29;20012;-61
2021/04/07 00:24:32;;;;;;;8.05;5.00;;;;;;;-2.23;100.00;95462.84;1019778;29;20012;-62
2021/04/07 00:25:03;;;;;;;9.55;4.50;;;;;;;-2.23;100.00;95463.69;1019763;29;20354;-61
2021/04/07 00:25:34;;;;;;;8.68;4.60;;;;;;;-2.21;100.00;95459.22;1015968;29;20498;-61
2021/04/07 00:26:05;;;;;;;10.50;5.38;;;;;;;-2.22;100.00;95461.91;1015874;29;20115;-61
2021/04/07 00:26:36;;;;;;;10.32;5.53;;;;;;;-2.21;100.00;95458.34;1023734;29;20485;-61
2021/04/07 00:27:11;;;;;;;10.75;5.55;;;;;;;-2.21;100.00;95464.41;1023681;29;20050;-60
2021/04/07 00:27:43;;;;;;;8.75;4.78;;;;;;;-2.24;100.00;95462.03;1023875;29;20015;-60
2021/04/07 00:28:19;;;;;;;8.95;5.25;;;;;;;-2.28;100.00;95471.81;1031641;28;20298;-60
2021/04/07 00:28:50;;;;;;;10.48;4.78;;;;;;;-2.25;100.00;95457.75;1027844;28;20429;-62
2021/04/07 00:29:20;;;;;;;10.48;5.82;;;;;;;-2.26;100.00;95458.72;1023670;29;20247;-61
2021/04/07 00:29:51;;;;;;;10.13;5.00;;;;;;;-2.38;100.00;95443.97;1023788;29;20015;-60
2021/04/07 00:30:25;;;;;;;14.30;5.30;;;;;;;-2.29;100.00;95458.91;1023594;29;20031;-61
2021/04/07 00:30:57;;;;;;;10.20;5.75;;;;;;;-2.22;100.00;95459.31;1023732;29;20150;-62
2021/04/07 00:31:28;;;;;;;11.60;6.00;;;;;;;-2.20;100.00;95458.25;1031821;28;20469;-61
2021/04/07 00:31:58;;;;;;;11.38;5.75;;;;;;;-2.27;100.00;95462.22;1023768;29;20247;-60
2021/04/07 00:32:29;;;;;;;11.27;6.45;;;;;;;-2.30;100.00;95449.44;1019627;29;20303;-60
2021/04/07 00:33:00;;;;;;;8.23;5.72;;;;;;;-2.18;100.00;95460.75;1027705;28;20050;-61
2021/04/07 00:33:31;;;;;;;10.43;5.75;;;;;;;-2.21;100.00;95466.16;1027481;28;20081;-60
2021/04/07 00:34:02;;;;;;;12.63;6.28;;;;;;;-2.23;100.00;95458.50;1027709;28;20062;-61
2021/04/07 00:34:34;;;;;;;8.82;5.32;;;;;;;-2.20;100.00;95447.84;1031785;28;20006;-61
2021/04/07 00:35:05;;;;;;;9.73;6.05;;;;;;;-2.24;100.00;95450.81;1031761;28;20006;-61
2021/04/07 00:35:36;;;;;;;9.38;5.40;;;;;;;-2.23;100.00;95453.28;1019914;28;20011;-61
2021/04/07 00:36:07;;;;;;;10.23;6.05;;;;;;;-2.30;100.00;95450.28;1027766;28;20444;-61
2021/04/07 00:36:38;;;;;;;12.77;5.70;;;;;;;-2.26;100.00;95456.09;1027694;28;20034;-60
2021/04/07 00:37:09;;;;;;;10.35;5.90;;;;;;;-2.28;100.00;95455.41;1023796;28;20070;-61
2021/04/07 00:37:39;;;;;;;12.80;6.18;;;;;;;-2.25;100.00;95451.72;1031795;28;20384;-61
2021/04/07 00:38:11;;;;;;;10.75;5.97;;;;;;;-2.16;100.00;95448.47;1035852;28;20486;-62
2021/04/07 00:38:42;;;;;;;11.60;6.70;;;;;;;-2.18;100.00;95456.38;1031576;28;20041;-61
2021/04/07 00:39:13;;;;;;;13.18;6.57;;;;;;;-2.18;100.00;95458.16;1035824;28;20014;-61
2021/04/07 00:39:44;;;;;;;11.15;6.32;;;;;;;-2.14;100.00;95457.81;1023800;29;20019;-61
2021/04/07 00:40:15;;;;;;;10.48;6.65;;;;;;;-2.12;100.00;95450.75;1031679;28;20108;-59
2021/04/07 00:40:46;;;;;;;13.40;6.85;;;;;;;-2.10;100.00;95456.66;1023784;28;20023;-61
2021/04/07 00:41:17;;;;;;;9.27;6.25;;;;;;;-2.07;100.00;95453.00;1023731;28;20497;-61
2021/04/07 00:41:48;;;;;;;11.88;6.00;;;;;;;-2.09;100.00;95449.66;1031753;28;20018;-61
2021/04/07 00:42:18;;;;;;;10.65;6.20;;;;;;;-2.19;100.00;95459.09;1023519;29;20510;-60
2021/04/07 00:42:51;;;;;;;10.30;5.90;;;;;;;-2.17;100.00;95452.84;1023655;29;20047;-61
2021/04/07 00:43:22;;;;;;;10.38;5.72;;;;;;;-2.15;100.00;95445.75;1019608;29;20047;-60
2021/04/07 00:43:52;;;;;;;10.25;5.95;;;;;;;-2.19;100.00;95453.91;1035525;28;20271;-61
2021/04/07 00:44:23;;;;;;;11.90;5.70;;;;;;;-2.24;100.00;95450.81;1027815;28;20154;-59
2021/04/07 00:44:54;;;;;;;10.10;5.43;;;;;;;-2.23;100.00;95455.91;1019686;29;20007;-61
2021/04/07 00:45:24;;;;;;;12.82;6.35;;;;;;;-2.28;100.00;95450.19;1024007;29;20106;-61
2021/04/07 00:45:55;;;;;;;9.65;5.97;;;;;;;-2.23;100.00;95455.91;1024150;29;20015;-61
2021/04/07 00:46:26;;;;;;;13.40;5.78;;;;;;;-2.19;100.00;95456.50;1031785;28;20014;-61
2021/04/07 00:46:57;;;;;;;8.93;5.60;;;;;;;-2.24;100.00;95446.41;1023699;28;20515;-61
2021/04/07 00:47:27;;;;;;;10.00;5.47;;;;;;;-2.23;100.00;95442.88;1035745;28;20022;-61
2021/04/07 00:47:58;;;;;;;8.80;5.32;;;;;;;-2.26;100.00;95445.72;1031754;28;20014;-61
2021/04/07 00:48:29;;;;;;;11.23;5.68;;;;;;;-2.22;100.00;95457.53;1023845;29;20098;-59
2021/04/07 00:49:00;;;;;;;10.57;4.97;;;;;;;-2.23;100.00;95453.28;1031724;28;20010;-62
2021/04/07 00:49:31;;;;;;;9.38;5.78;;;;;;;-2.16;100.00;95449.31;1027695;28;20070;-61
2021/04/07 00:50:03;;;;;;;10.55;5.70;;;;;;;-2.25;100.00;95438.72;1027758;28;20011;-61
2021/04/07 00:50:34;;;;;;;15.73;6.40;;;;;;;-2.17;100.00;95457.22;1031879;28;20027;-61
2021/04/07 00:51:05;;;;;;;10.95;6.40;;;;;;;-2.21;100.00;95461.81;1023633;29;20477;-60
2021/04/07 00:51:44;;;;;;;9.95;5.55;;;;;;;-2.20;100.00;95460.03;1027649;28;20030;-61
2021/04/07 00:52:15;;;;;;;;;;;;;;;-2.27;100.00;95463.06;1028158;28;20022;-60
2021/04/07 00:52:46;;;;;;;12.10;5.05;;;;;;;-2.22;100.00;95459.31;1031768;28;19906;-60
2021/04/07 00:53:17;;;;;;;13.25;5.43;;;;;;;-2.16;100.00;95457.13;1035625;28;20058;-61
2021/04/07 00:53:48;;;;;;;9.38;5.35;;;;;;;-2.17;100.00;95459.81;1031559;28;20415;-60
2021/04/07 00:54:20;;;;;;;8.68;5.25;;;;;;;-2.27;100.00;95457.03;1019760;29;20012;-61
2021/04/07 00:54:52;;;;;;;8.43;5.68;;;;;;;-2.29;100.00;95466.72;1023856;28;20720;-61
2021/04/07 00:55:25;;;;;;;12.30;5.55;;;;;;;-2.51;100.00;95413.66;1023558;29;20515;-59
2021/04/07 00:55:56;;;;;;;14.13;5.13;;;;;;;-2.21;100.00;95464.41;1023784;29;20412;-61
2021/04/07 00:56:27;;;;;;;7.82;5.53;;;;;;;-2.27;100.00;95449.22;1031689;28;20029;-60
2021/04/07 00:57:00;;;;;;;10.00;5.22;;;;;;;-2.28;100.00;95465.78;1031766;28;20015;-60
2021/04/07 00:57:31;;;;;;;9.93;5.38;;;;;;;-2.28;100.00;95458.81;1019705;29;20046;-60
2021/04/07 00:58:02;;;;;;;8.27;5.20;;;;;;;-2.24;100.00;95459.41;1023703;29;20316;-61
2021/04/07 00:58:33;;;;;;;11.82;5.57;;;;;;;-2.23;100.00;95463.69;1027782;28;20460;-62
2021/04/07 00:59:03;;;;;;;7.88;5.18;;;;;;;-2.25;100.00;95462.94;1023759;29;20338;-62
2021/04/07 00:59:34;;;;;;;10.45;5.80;;;;;;;-2.28;100.00;95471.81;1031595;28;20018;-60
2021/04/07 01:00:06;;;;;;;10.68;5.70;;;;;;;-2.33;100.00;95473.91;1023799;28;20020;-62
2021/04/07 01:00:37;;;;;;;10.75;6.13;;;;;;;-2.30;100.00;95472.84;1019770;29;20020;-61
2021/04/07 01:01:08;;;;;;;9.02;5.50;;;;;;;-2.28;100.00;95460.59;1023708;29;20509;-61
2021/04/07 01:01:39;;;;;;;10.65;5.45;;;;;;;-2.27;100.00;95464.84;1027655;28;20453;-61
2021/04/07 01:02:10;;;;;;;12.32;5.05;;;;;;;-2.23;100.00;95461.09;1023624;29;20015;-61
2021/04/07 01:02:40;;;;;;;9.10;5.07;;;;;;;-2.22;100.00;95464.53;1019772;29;20023;-61
2021/04/07 01:03:12;;;;;;;7.75;4.63;;;;;;;-2.24;100.00;95469.00;1023630;29;20118;-62
2021/04/07 01:03:42;;;;;;;7.30;4.88;;;;;;;-2.21;100.00;95467.00;1027427;28;20019;-61
2021/04/07 01:04:13;;;;;;;8.70;4.63;;;;;;;-2.20;100.00;95460.03;1015932;29;20417;-61
2021/04/07 01:04:44;;;;;;;8.10;5.10;;;;;;;-2.21;100.00;95467.00;1019730;29;20398;-61
2021/04/07 01:05:16;;;;;;;6.68;4.15;;;;;;;-2.22;100.00;95456.72;1035923;28;20033;-60
2021/04/07 01:05:47;;;;;;;9.18;4.60;;;;;;;-2.23;100.00;95462.84;1035641;28;20080;-60
2021/04/07 01:06:18;;;;;;;7.93;4.55;;;;;;;-2.22;100.00;95464.53;1031749;28;20026;-61
2021/04/07 01:06:49;;;;;;;6.88;4.40;;;;;;;-2.26;100.00;95458.72;1031700;28;20022;-61
2021/04/07 01:07:19;;;;;;;7.90;4.20;;;;;;;-2.25;100.00;95459.53;1023721;29;20026;-61
2021/04/07 01:07:50;;;;;;;6.68;4.07;;;;;;;-2.23;100.00;95463.69;1027735;28;20018;-62
2021/04/07 01:08:21;;;;;;;10.13;4.38;;;;;;;-2.21;100.00;95461.81;1031798;28;20203;-60
2021/04/07 01:08:52;;;;;;;8.57;4.78;;;;;;;-2.21;100.00;95460.97;1023781;29;20106;-61
2021/04/07 01:09:23;;;;;;;7.47;4.60;;;;;;;-2.21;100.00;95460.97;1031713;28;20030;-63
2021/04/07 01:09:53;;;;;;;9.85;4.53;;;;;;;-2.16;100.00;95453.66;1019663;29;20034;-61
2021/04/07 01:10:24;;;;;;;7.10;4.22;;;;;;;-2.17;100.00;95467.63;1031626;28;20149;-60
2021/04/07 01:10:55;;;;;;;5.85;3.95;;;;;;;-2.15;100.00;95466.56;1023794;28;20106;-62
2021/04/07 01:11:26;;;;;;;6.30;4.00;;;;;;;-2.15;100.00;95461.34;1031681;28;20026;-62
2021/04/07 01:11:57;;;;;;;6.65;3.55;;;;;;;-2.15;100.00;95466.56;1035942;28;20033;-61
2021/04/07 01:12:28;;;;;;;7.53;4.28;;;;;;;-2.21;100.00;95454.00;1023629;29;20019;-61
2021/04/07 01:12:59;;;;;;;9.23;3.53;;;;;;;-2.15;100.00;95461.34;1027745;28;20026;-60
2021/04/07 01:13:30;;;;;;;6.95;3.85;;;;;;;-2.12;100.00;95461.13;1027512;28;20039;-59
2021/04/07 01:14:01;;;;;;;8.60;3.80;;;;;;;-2.16;100.00;95459.72;1028446;28;20078;-61
2021/04/07 01:14:33;;;;;;;7.22;4.25;;;;;;;-2.16;100.00;95464.06;1028897;28;20019;-60
2021/04/07 01:15:05;;;;;;;9.00;4.32;;;;;;;-2.14;100.00;95452.63;1037179;28;20608;-61
2021/04/07 01:15:36;;;;;;;7.18;3.80;;;;;;;-2.22;100.00;95439.34;1033134;28;20038;-61
2021/04/07 01:16:07;;;;;;;8.52;3.70;;;;;;;-2.22;100.00;95448.91;1025064;28;20333;-61
2021/04/07 01:16:38;;;;;;;5.43;3.50;;;;;;;-2.13;100.00;95451.66;1036965;28;20022;-61
2021/04/07 01:17:09;;;;;;;7.53;3.72;;;;;;;-2.11;100.00;95465.41;1025115;28;20019;-61
2021/04/07 01:17:40;;;;;;;7.70;3.80;;;;;;;-2.09;100.00;95455.72;1029022;28;20023;-61
2021/04/07 01:18:11;;;;;;;7.70;3.63;;;;;;;-2.04;100.00;95454.56;1029107;28;20396;-61
2021/04/07 01:18:42;;;;;;;6.45;3.83;;;;;;;-2.08;100.00;95453.94;1028981;28;20015;-61
2021/04/07 01:19:13;;;;;;;7.80;3.90;;;;;;;-2.06;100.00;95452.06;1033013;28;20053;-61
2021/04/07 01:19:43;;;;;;;8.13;4.40;;;;;;;-2.04;100.00;95454.56;1032987;28;20132;-61
2021/04/07 01:20:16;;;;;;;8.20;3.97;;;;;;;-2.06;100.00;95456.44;1033094;28;20030;-61
2021/04/07 01:20:47;;;;;;;7.57;4.10;;;;;;;-2.02;100.00;95452.66;1032960;28;20022;-61
2021/04/07 01:21:18;;;;;;;8.75;3.67;;;;;;;-2.02;100.00;95450.91;1029061;28;20023;-61
2021/04/07 01:21:48;;;;;;;7.95;4.13;;;;;;;-2.02;100.00;95452.66;1029047;28;20026;-61
2021/04/07 01:22:21;;;;;;;6.03;3.60;;;;;;;-2.03;100.00;95454.44;1032951;28;22080;-61
2021/04/07 01:22:57;;;;;;;5.82;3.58;;;;;;;-2.01;100.00;95451.72;1024947;28;20026;-61
2021/04/07 01:23:28;;;;;;;8.40;4.35;;;;;;;-2.02;100.00;95463.06;1028915;28;20038;-61
2021/04/07 01:23:58;;;;;;;7.30;4.22;;;;;;;-2.03;100.00;95451.84;1028961;28;20878;-61
2021/04/07 01:24:29;;;;;;;6.57;3.70;;;;;;;-2.06;100.00;95459.84;1028937;28;20199;-60
2021/04/07 01:25:00;;;;;;;8.20;3.92;;;;;;;-2.14;100.00;95439.63;1025002;28;20011;-61
2021/04/07 01:25:31;;;;;;;6.55;3.53;;;;;;;-2.05;100.00;95456.31;1025117;29;20282;-61
2021/04/07 01:26:02;;;;;;;7.20;3.53;;;;;;;-2.05;100.00;95452.91;1033032;28;20089;-61
2021/04/07 01:26:32;;;;;;;6.32;3.67;;;;;;;-2.05;100.00;95450.31;1037102;28;20014;-62
2021/04/07 01:27:03;;;;;;;5.78;3.47;;;;;;;-2.05;100.00;95452.91;1033035;28;20106;-60
2021/04/07 01:27:35;;;;;;;11.13;3.72;;;;;;;-2.04;100.00;95454.56;1020945;29;20550;-59
2021/04/07 01:28:06;;;;;;;5.95;3.30;;;;;;;-2.04;100.00;95455.38;1029044;28;20011;-61
2021/04/07 01:28:36;;;;;;;4.97;3.22;;;;;;;-2.06;100.00;95453.84;1033156;28;20038;-59
2021/04/07 01:29:07;;;;;;;9.20;3.10;;;;;;;-2.05;100.00;95456.31;1024857;28;20015;-61
2021/04/07 01:29:38;;;;;;;7.25;3.53;;;;;;;-2.06;100.00;95446.03;1033133;28;20472;-60
2021/04/07 01:30:11;;;;;;;6.97;3.78;;;;;;;-2.03;100.00;95459.66;1029001;28;20015;-61
2021/04/07 01:31:22;;;;;;;7.30;3.65;;;;;;;-2.08;100.00;95446.97;1028940;28;20704;-61
2021/04/07 01:31:54;;;;;;;7.35;3.70;;;;;;;-2.05;100.00;95461.53;1028999;28;20081;-60
2021/04/07 01:32:25;;;;;;;5.90;3.70;;;;;;;-2.00;100.00;95458.56;1017078;29;20024;-61
2021/04/07 01:32:55;;;;;;;6.95;3.40;;;;;;;-2.02;100.00;95453.50;1025046;29;20026;-61
2021/04/07 01:33:27;;;;;;;8.00;3.60;;;;;;;-2.03;100.00;95451.84;1032854;28;20021;-61
2021/04/07 01:33:57;;;;;;;6.60;3.50;;;;;;;-1.98;100.00;95464.53;1032933;28;20122;-61
2021/04/07 01:34:29;;;;;;;5.13;3.15;;;;;;;-1.99;100.00;95458.47;1033083;28;20569;-61
2021/04/07 01:35:00;;;;;;;7.07;3.42;;;;;;;-1.99;100.00;95457.66;1032873;28;20013;-61
2021/04/07 01:35:30;;;;;;;4.63;3.33;;;;;;;-1.96;100.00;95463.47;1032954;28;20275;-62
2021/04/07 01:36:02;;;;;;;5.32;3.17;;;;;;;-2.03;100.00;95443.22;1032954;28;20076;-60
2021/04/07 01:36:33;;;;;;;7.00;3.63;;;;;;;-1.96;100.00;95460.03;1033051;28;20013;-60
2021/04/07 01:37:03;;;;;;;7.95;3.15;;;;;;;-2.05;100.00;95438.13;1029081;28;20245;-61
2021/04/07 01:37:34;;;;;;;6.35;3.03;;;;;;;-1.93;100.00;95454.63;1032896;28;20038;-61
2021/04/07 01:38:05;;;;;;;5.75;3.38;;;;;;;-1.93;100.00;95462.41;1033111;28;20424;-61
2021/04/07 01:38:36;;;;;;;7.53;3.53;;;;;;;-1.92;100.00;95464.06;1032988;28;20332;-60
2021/04/07 01:39:07;;;;;;;7.00;3.60;;;;;;;-1.93;100.00;95457.22;1028942;28;20030;-60
2021/04/07 01:39:37;;;;;;;4.40;3.28;;;;;;;-1.92;100.00;95467.47;1032888;28;20026;-60
2021/04/07 01:40:11;;;;;;;7.10;3.22;;;;;;;-1.99;100.00;95447.25;1029215;28;20546;-62
2021/04/07 01:40:42;;;;;;;5.88;3.58;;;;;;;-1.90;100.00;95460.44;1028975;28;20011;-61
2021/04/07 01:41:13;;;;;;;6.65;3.13;;;;;;;-1.88;100.00;95459.47;1020992;29;20626;-61
2021/04/07 01:41:44;;;;;;;9.45;4.45;;;;;;;-1.91;100.00;95452.72;1021237;29;20018;-60
2021/04/07 01:42:15;;;;;;;6.10;3.15;;;;;;;-1.86;100.00;95463.63;1042006;28;20014;-61
2021/04/07 01:42:46;;;;;;;7.30;3.58;;;;;;;-1.87;100.00;95454.16;1035475;28;20425;-60
2021/04/07 01:43:18;;;;;;;7.35;3.65;;;;;;;-1.90;100.00;95457.81;1031601;28;20027;-61
2021/04/07 01:43:49;;;;;;;4.53;3.03;;;;;;;-1.90;100.00;95460.44;1031367;28;20073;-60
2021/04/07 01:44:22;;;;;;;5.10;3.33;;;;;;;-1.87;100.00;95461.97;1035903;28;20030;-61
2021/04/07 01:44:53;;;;;;;4.40;2.97;;;;;;;-1.86;100.00;95457.56;1024206;29;20019;-60
2021/04/07 01:45:24;;;;;;;9.05;3.22;;;;;;;-1.87;100.00;95456.75;1023884;29;20027;-61
2021/04/07 01:45:56;;;;;;;6.50;3.53;;;;;;;-1.90;100.00;95459.56;1033236;28;20121;-61
2021/04/07 01:46:27;;;;;;;9.50;3.42;;;;;;;-1.89;100.00;95458.66;1032539;28;20265;-59
2021/04/07 01:46:57;;;;;;;6.95;3.55;;;;;;;-1.91;100.00;95458.75;1028379;29;20083;-61
2021/04/07 01:47:28;;;;;;;6.75;3.08;;;;;;;-1.91;100.00;95463.13;1028178;28;20077;-61
2021/04/07 01:47:59;;;;;;;6.93;3.60;;;;;;;-1.91;100.00;95460.53;1028347;29;20034;-62
2021/04/07 01:48:30;;;;;;;7.75;3.63;;;;;;;-1.90;100.00;95456.97;1032350;28;20015;-59
2021/04/07 01:49:03;;;;;;;6.55;3.60;;;;;;;-1.90;100.00;95463.03;1034353;28;20018;-61
2021/04/07 01:49:34;;;;;;;7.43;4.03;;;;;;;-1.86;100.00;95454.97;1028848;28;20748;-62
2021/04/07 01:50:05;;;;;;;6.97;3.38;;;;;;;-1.86;100.00;95461.03;1028905;28;20321;-61
2021/04/07 01:50:36;;;;;;;6.63;3.28;;;;;;;-1.86;100.00;95462.78;1028979;28;20019;-61
2021/04/07 01:51:08;;;;;;;10.80;3.60;;;;;;;-1.87;100.00;95459.34;1024879;29;20019;-61
2021/04/07 01:51:39;;;;;;;5.03;3.38;;;;;;;-1.88;100.00;95459.47;1024812;29;20548;-60
2021/04/07 01:52:09;;;;;;;11.15;3.58;;;;;;;-1.89;100.00;95463.84;1028899;28;20030;-61
2021/04/07 01:52:40;;;;;;;6.25;3.80;;;;;;;-1.91;100.00;95463.97;1041041;28;20032;-62
2021/04/07 01:53:12;;;;;;;7.53;4.10;;;;;;;-1.94;100.00;95463.34;1024876;29;20027;-61
2021/04/07 01:53:43;;;;;;;6.75;3.50;;;;;;;-1.97;100.00;95458.38;1024658;29;20038;-62
2021/04/07 01:54:14;;;;;;;6.80;3.75;;;;;;;-1.93;100.00;95465.84;1032697;28;20488;-61
2021/04/07 01:54:44;;;;;;;8.27;3.95;;;;;;;-1.94;100.00;95469.38;1028826;28;20508;-62
2021/04/07 01:55:15;;;;;;;5.15;3.25;;;;;;;-1.92;100.00;95471.88;1024892;29;20031;-61
2021/04/07 01:55:46;;;;;;;5.20;2.97;;;;;;;-1.90;100.00;95472.59;1028938;28;20481;-61
2021/04/07 01:56:17;;;;;;;6.43;3.33;;;;;;;-1.93;100.00;95481.44;1024945;29;20038;-61
2021/04/07 01:56:49;;;;;;;7.30;3.15;;;;;;;-1.95;100.00;95467.72;1028742;28;20257;-61
2021/04/07 01:57:20;;;;;;;7.20;3.22;;;;;;;-1.98;100.00;95461.94;1032985;28;20026;-61
2021/04/07 01:57:50;;;;;;;9.63;3.45;;;;;;;-1.93;100.00;95476.25;1028940;28;20254;-61
2021/04/07 01:58:21;;;;;;;5.85;3.28;;;;;;;-1.93;100.00;95478.03;1024989;29;20086;-61
2021/04/07 01:59:04;;;;;;;8.05;3.20;;;;;;;-1.95;100.00;95472.94;1020816;29;20072;-60
2021/04/07 01:59:35;;;;;;;5.22;3.38;;;;;;;-1.92;100.00;95474.47;1033004;28;20018;-61
2021/04/07 02:00:09;;;;;;;5.65;3.20;;;;;;;-1.93;100.00;95475.44;1033056;28;20042;-61
2021/04/07 02:00:40;;;;;;;5.85;3.25;;;;;;;-1.93;100.00;95475.44;1035110;28;20014;-60
2021/04/07 02:01:11;;;;;;;6.38;3.20;;;;;;;-1.96;100.00;95473.03;1032957;28;20605;-60
2021/04/07 02:01:42;;;;;;;6.47;3.58;;;;;;;-1.94;100.00;95481.56;1029038;28;20030;-61
2021/04/07 02:02:12;;;;;;;6.07;2.53;;;;;;;-1.95;100.00;95475.53;1021314;29;20493;-61
2021/04/07 02:02:43;;;;;;;6.47;2.70;;;;;;;-1.93;100.00;95486.66;1021280;29;20338;-61
2021/04/07 02:03:14;;;;;;;6.88;2.95;;;;;;;-1.94;100.00;95477.19;1033200;28;20468;-63
2021/04/07 02:03:45;;;;;;;6.35;2.97;;;;;;;-1.95;100.00;95478.13;1028888;28;20022;-61
2021/04/07 02:04:16;;;;;;;4.80;3.30;;;;;;;-1.94;100.00;95482.38;1021041;29;20517;-61
2021/04/07 02:04:46;;;;;;;5.80;3.78;;;;;;;-1.94;100.00;95479.78;1024734;29;20551;-61
2021/04/07 02:05:17;;;;;;;5.45;2.78;;;;;;;-2.04;100.00;95475.38;1036999;28;20596;-61
2021/04/07 02:05:48;;;;;;;5.72;2.95;;;;;;;-1.98;100.00;95480.13;1041052;28;20050;-61
2021/04/07 02:06:18;;;;;;;4.90;3.35;;;;;;;-1.97;100.00;95486.97;1028924;28;20524;-60
2021/04/07 02:06:49;;;;;;;4.70;3.40;;;;;;;-1.98;100.00;95483.56;1024838;29;20026;-61
2021/04/07 02:07:20;;;;;;;5.82;3.40;;;;;;;-1.99;100.00;95491.47;1020968;29;20028;-61
2021/04/07 02:07:51;;;;;;;5.30;3.13;;;;;;;-1.98;100.00;95478.34;1028817;28;20023;-61
2021/04/07 02:08:21;;;;;;;9.25;3.38;;;;;;;-2.00;100.00;95489.78;1020915;29;20023;-61
2021/04/07 02:08:52;;;;;;;9.65;3.78;;;;;;;-1.99;100.00;95491.47;1024760;29;20027;-61
2021/04/07 02:09:23;;;;;;;6.03;3.08;;;;;;;-2.02;100.00;95482.13;1020905;29;20055;-61
2021/04/07 02:09:54;;;;;;;8.88;3.70;;;;;;;-2.04;100.00;95490.97;1024870;29;20023;-61
2021/04/07 02:10:24;;;;;;;4.65;3.03;;;;;;;-2.03;100.00;95498.66;1028803;28;20353;-61
2021/04/07 02:10:55;;;;;;;7.03;3.63;;;;;;;-2.04;100.00;95488.38;1024746;29;20073;-61
2021/04/07 02:11:26;;;;;;;6.05;3.55;;;;;;;-2.05;100.00;95491.94;1028842;28;20026;-61
2021/04/07 02:11:57;;;;;;;7.57;3.67;;;;;;;-2.04;100.00;95499.59;1024811;29;20027;-61
2021/04/07 02:12:27;;;;;;;6.18;3.15;;;;;;;-2.02;100.00;95492.53;1028867;28;20022;-61
2021/04/07 02:12:59;;;;;;;6.50;3.45;;;;;;;-2.02;100.00;95486.47;1028736;28;20027;-61
2021/04/07 02:13:30;;;;;;;5.63;2.88;;;;;;;-2.04;100.00;95509.19;1020676;29;20070;-60
2021/04/07 02:14:01;;;;;;;7.70;3.60;;;;;;;-2.06;100.00;95500.66;1028665;28;20266;-60
2021/04/07 02:14:32;;;;;;;4.70;3.38;;;;;;;-2.04;100.00;95489.19;1024865;29;20361;-61
2021/04/07 02:15:13;;;;;;;8.15;3.53;;;;;;;-2.03;100.00;95492.66;1024856;29;20027;-60
2021/04/07 02:15:44;;;;;;;4.72;3.10;;;;;;;-2.05;100.00;95489.31;1024858;29;20057;-61
2021/04/07 02:16:15;;;;;;;7.32;3.72;;;;;;;-2.03;100.00;95490.03;1016922;29;20276;-61
2021/04/07 02:16:53;;;;;;;5.93;3.35;;;;;;;-2.04;100.00;95502.19;1020301;29;20058;-62
2021/04/07 02:17:24;;;;;;;5.60;3.30;;;;;;;-2.04;100.00;95496.16;1026023;28;20267;-61
2021/04/07 02:17:55;;;;;;;5.68;2.92;;;;;;;-2.05;100.00;95495.34;1026145;28;20764;-61
2021/04/07 02:18:25;;;;;;;7.00;4.15;;;;;;;-2.06;100.00;95495.47;1028821;28;20429;-61
2021/04/07 02:18:57;;;;;;;6.10;3.35;;;;;;;-2.06;100.00;95496.28;1024791;28;20030;-61
2021/04/07 02:19:29;;;;;;;6.97;3.22;;;;;;;-2.05;100.00;95497.13;1032649;28;20022;-61
2021/04/07 02:20:00;;;;;;;7.07;3.58;;;;;;;-2.06;100.00;95493.69;1024810;29;20334;-61
2021/04/07 02:20:30;;;;;;;6.28;3.70;;;;;;;-2.06;100.00;95505.88;1024881;29;20247;-61
2021/04/07 02:21:01;;;;;;;6.75;3.55;;;;;;;-2.04;100.00;95503.97;1032820;28;20030;-61
2021/04/07 02:21:32;;;;;;;6.18;3.28;;;;;;;-2.05;100.00;95500.56;1028736;28;20025;-62
2021/04/07 02:22:10;;;;;;;6.55;3.25;;;;;;;-2.08;100.00;95512.00;1032728;28;20026;-61
2021/04/07 02:22:41;;;;;;;8.88;3.47;;;;;;;-2.19;100.00;95488.53;1037046;28;20010;-62
2021/04/07 02:23:12;;;;;;;8.63;3.80;;;;;;;-2.14;100.00;95507.25;1032754;28;20254;-62
2021/04/07 02:23:43;;;;;;;6.72;3.72;;;;;;;-2.17;100.00;95510.06;1028430;28;20077;-60
2021/04/07 02:24:13;;;;;;;7.85;3.55;;;;;;;-2.15;100.00;95505.56;1028861;28;20021;-61
2021/04/07 02:24:47;;;;;;;6.93;4.07;;;;;;;-2.17;100.00;95511.84;1024769;29;20074;-59
2021/04/07 02:25:17;;;;;;;7.20;3.72;;;;;;;-2.16;100.00;95511.72;1032521;28;20037;-61
2021/04/07 02:25:48;;;;;;;8.57;3.58;;;;;;;-2.21;100.00;95511.22;1019424;29;20274;-62
2021/04/07 02:26:19;;;;;;;6.35;3.88;;;;;;;-2.27;100.00;95514.25;1028093;28;20011;-61